Minot, ND (58701)

3:32 PM CDT on October 24, 2014 (GMT -0500)
Why Not Minot | Change Station
CLOSE
Current Station
Personal Weather Station
Location: Minot, ND
Elevation: 1759 ft
Nearby Weather Stations

Elev 1759 ft 48.22 °N, 101.30 °W | Updated 13 minutes ago

Clear
Clear
64.0 °F
Feels Like 64.0 °F
N
6.3
Wind Variable Wind from West

Today
High -- | Low -- °F
--% Chance of Precip.
Yesterday
High -- | Low -- °F
Precip. -- in
8:18 AM 6:39 PM
New Moon, 1% visible
Pressure 29.85 in
Visibility 10.0 miles
Clouds Clear
Dew Point 33 °F
Humidity 31%
Rainfall 0.00 in
Snow Depth Not available.
UV 2 out of 12
Pollen 2.70 out of 12
Air Quality Not available.
Flu Activity Local Activity
METAR KMOT 241954Z 27026G33KT 10SM CLR 18/M03 A2984 RMK AO2 PK WND 26034/1901 RAB02E10 SLP106 P0000 T01831028

More Conditions Fewer Conditions

Pressure 29.85 in
Visibility 10.0 miles
Clouds Clear
Dew Point 33 °F
Humidity 31%
Rainfall 0.00 in
Snow Depth Not available.
UV 2 out of 12
Pollen 2.70 out of 12
Air Quality Not available.
Flu Activity Local Activity
METAR KMOT 241954Z 27026G33KT 10SM CLR 18/M03 A2984 RMK AO2 PK WND 26034/1901 RAB02E10 SLP106 P0000 T01831028

More Conditions Fewer Conditions

10-Day Weather Forecast

Almanac

Astronomy

Oct. 24, 2014 Rise Set
Actual Time 8:18 AM CDT 6:39 PM CDT
Civil Twilight 7:46 AM CDT 7:11 PM CDT
Nautical Twilight 7:09 AM CDT 7:47 PM CDT
Astronomical Twilight 6:33 AM CDT 8:23 PM CDT
Moon 9:02 AM CDT 7:16 PM CDT
Length of Visible Light 11h 25m
Length of Day
10h 21m
Tomorrow will be 3m 17s shorter.
New Moon, 1% of the Moon is Illuminated
Today
New Moon
Oct 30
First Quarter
Nov 6
Full
Nov 14
Last Quarter
Nov 22
New

Today's Extremes

State Highs State Lows

Community

WunderPhotos

Upload Photos

1,764,648 photos uploaded!

Nearby

Snow Depth

Station Depth Elevation
No new snow has been reported.

Earthquake Activity

City Distance Mag. Time & Date
No recent earthquake activity has been reported nearby.
Minimum magnitude displayed is 2.5.

Coastal Water Temperatures

Place Temperature
No Stations Reporting

Nearby Weather Stations